sensor_id;sensor_type;location;lat;lon;timestamp;temperature;humidity
2106;DHT22;1059;52.548;13.408;2023-02-03T00:01:35;4.10;99.90
2106;DHT22;1059;52.548;13.408;2023-02-03T00:04:02;4.10;99.90
2106;DHT22;1059;52.548;13.408;2023-02-03T00:06:30;4.10;99.90
2106;DHT22;1059;52.548;13.408;2023-02-03T00:08:57;4.10;99.90
2106;DHT22;1059;52.548;13.408;2023-02-03T00:11:27;4.10;99.90
2106;DHT22;1059;52.548;13.408;2023-02-03T00:13:54;4.10;99.90
2106;DHT22;1059;52.548;13.408;2023-02-03T00:16:21;4.00;99.90
2106;DHT22;1059;52.548;13.408;2023-02-03T00:18:50;4.00;99.90
2106;DHT22;1059;52.548;13.408;2023-02-03T00:21:16;4.00;99.90
2106;DHT22;1059;52.548;13.408;2023-02-03T00:23:43;4.00;99.90
2106;DHT22;1059;52.548;13.408;2023-02-03T00:26:11;4.00;99.90
2106;DHT22;1059;52.548;13.408;2023-02-03T00:28:38;4.00;99.90
2106;DHT22;1059;52.548;13.408;2023-02-03T00:31:07;4.00;99.90
2106;DHT22;1059;52.548;13.408;2023-02-03T00:33:39;3.90;99.90
2106;DHT22;1059;52.548;13.408;2023-02-03T00:36:09;3.90;99.90
2106;DHT22;1059;52.548;13.408;2023-02-03T00:38:36;3.80;99.90
2106;DHT22;1059;52.548;13.408;2023-02-03T00:41:03;3.80;99.90
2106;DHT22;1059;52.548;13.408;2023-02-03T00:43:30;3.70;99.90
2106;DHT22;1059;52.548;13.408;2023-02-03T00:45:57;3.70;99.90
2106;DHT22;1059;52.548;13.408;2023-02-03T00:48:24;3.70;99.90
2106;DHT22;1059;52.548;13.408;2023-02-03T00:50:51;3.70;99.90
2106;DHT22;1059;52.548;13.408;2023-02-03T00:53:19;3.70;99.90
2106;DHT22;1059;52.548;13.408;2023-02-03T00:55:46;3.70;99.90
2106;DHT22;1059;52.548;13.408;2023-02-03T00:58:12;3.60;99.90
2106;DHT22;1059;52.548;13.408;2023-02-03T01:00:39;3.60;99.90
2106;DHT22;1059;52.548;13.408;2023-02-03T01:03:06;3.60;99.90
2106;DHT22;1059;52.548;13.408;2023-02-03T01:05:33;3.60;99.90
2106;DHT22;1059;52.548;13.408;2023-02-03T01:08:00;3.60;99.90
2106;DHT22;1059;52.548;13.408;2023-02-03T01:10:29;3.60;99.90
2106;DHT22;1059;52.548;13.408;2023-02-03T01:12:56;3.50;99.90
2106;DHT22;1059;52.548;13.408;2023-02-03T01:15:23;3.60;99.90
2106;DHT22;1059;52.548;13.408;2023-02-03T01:17:50;3.50;99.90
2106;DHT22;1059;52.548;13.408;2023-02-03T01:20:17;3.50;99.90
2106;DHT22;1059;52.548;13.408;2023-02-03T01:22:46;3.50;99.90
2106;DHT22;1059;52.548;13.408;2023-02-03T01:25:12;3.50;99.90
2106;DHT22;1059;52.548;13.408;2023-02-03T01:27:41;3.50;99.90
2106;DHT22;1059;52.548;13.408;2023-02-03T01:30:09;3.40;99.90
2106;DHT22;1059;52.548;13.408;2023-02-03T01:32:35;3.50;99.90
2106;DHT22;1059;52.548;13.408;2023-02-03T01:35:02;3.40;99.90
2106;DHT22;1059;52.548;13.408;2023-02-03T01:37:29;3.40;99.90
2106;DHT22;1059;52.548;13.408;2023-02-03T01:39:56;3.40;99.90
2106;DHT22;1059;52.548;13.408;2023-02-03T01:42:23;3.30;99.90
2106;DHT22;1059;52.548;13.408;2023-02-03T01:44:51;3.30;99.90
2106;DHT22;1059;52.548;13.408;2023-02-03T01:47:27;3.20;99.90
2106;DHT22;1059;52.548;13.408;2023-02-03T01:50:02;3.20;99.90
2106;DHT22;1059;52.548;13.408;2023-02-03T01:52:30;3.10;99.90
2106;DHT22;1059;52.548;13.408;2023-02-03T01:55:00;3.10;99.90
2106;DHT22;1059;52.548;13.408;2023-02-03T01:57:32;3.10;99.90
2106;DHT22;1059;52.548;13.408;2023-02-03T02:00:03;3.10;99.90
2106;DHT22;1059;52.548;13.408;2023-02-03T02:02:31;3.00;99.90
2106;DHT22;1059;52.548;13.408;2023-02-03T02:05:04;3.00;99.90
2106;DHT22;1059;52.548;13.408;2023-02-03T02:07:31;3.00;99.90
2106;DHT22;1059;52.548;13.408;2023-02-03T02:09:59;3.10;99.90
2106;DHT22;1059;52.548;13.408;2023-02-03T02:12:26;3.00;99.90
2106;DHT22;1059;52.548;13.408;2023-02-03T02:14:53;3.00;99.90
2106;DHT22;1059;52.548;13.408;2023-02-03T02:20:29;3.10;99.90
2106;DHT22;1059;52.548;13.408;2023-02-03T02:29:11;3.00;99.90
2106;DHT22;1059;52.548;13.408;2023-02-03T02:31:53;3.00;99.90
2106;DHT22;1059;52.548;13.408;2023-02-03T02:34:32;3.00;99.90
2106;DHT22;1059;52.548;13.408;2023-02-03T02:37:06;2.90;99.90
2106;DHT22;1059;52.548;13.408;2023-02-03T02:39:41;2.90;99.90
2106;DHT22;1059;52.548;13.408;2023-02-03T02:42:14;2.90;99.90
2106;DHT22;1059;52.548;13.408;2023-02-03T02:44:45;2.90;99.90
2106;DHT22;1059;52.548;13.408;2023-02-03T02:47:18;2.80;99.90
2106;DHT22;1059;52.548;13.408;2023-02-03T02:49:49;2.80;99.90
2106;DHT22;1059;52.548;13.408;2023-02-03T02:52:20;2.80;99.90
2106;DHT22;1059;52.548;13.408;2023-02-03T02:54:51;2.70;99.90
2106;DHT22;1059;52.548;13.408;2023-02-03T02:57:21;2.70;99.90
2106;DHT22;1059;52.548;13.408;2023-02-03T02:59:49;2.70;99.90
2106;DHT22;1059;52.548;13.408;2023-02-03T03:02:17;2.60;99.90
2106;DHT22;1059;52.548;13.408;2023-02-03T03:04:45;2.60;99.90
2106;DHT22;1059;52.548;13.408;2023-02-03T03:07:16;2.60;99.90
2106;DHT22;1059;52.548;13.408;2023-02-03T03:09:46;2.60;99.90
2106;DHT22;1059;52.548;13.408;2023-02-03T03:12:17;2.60;99.90
2106;DHT22;1059;52.548;13.408;2023-02-03T03:14:49;2.60;99.90
2106;DHT22;1059;52.548;13.408;2023-02-03T03:17:20;2.60;99.90
2106;DHT22;1059;52.548;13.408;2023-02-03T03:19:53;2.60;99.90
2106;DHT22;1059;52.548;13.408;2023-02-03T03:22:26;2.60;99.90
2106;DHT22;1059;52.548;13.408;2023-02-03T03:24:59;2.70;99.90
2106;DHT22;1059;52.548;13.408;2023-02-03T03:27:30;2.70;99.90
2106;DHT22;1059;52.548;13.408;2023-02-03T03:30:02;2.70;99.90
2106;DHT22;1059;52.548;13.408;2023-02-03T03:32:32;2.70;99.90
2106;DHT22;1059;52.548;13.408;2023-02-03T03:35:00;2.70;99.90
2106;DHT22;1059;52.548;13.408;2023-02-03T03:37:33;2.70;99.90
2106;DHT22;1059;52.548;13.408;2023-02-03T03:40:06;2.70;99.90
2106;DHT22;1059;52.548;13.408;2023-02-03T03:42:39;2.80;99.90
2106;DHT22;1059;52.548;13.408;2023-02-03T03:45:13;2.80;99.90
2106;DHT22;1059;52.548;13.408;2023-02-03T03:47:48;2.80;99.90
2106;DHT22;1059;52.548;13.408;2023-02-03T03:50:18;2.80;99.90
2106;DHT22;1059;52.548;13.408;2023-02-03T03:52:49;2.80;99.90
2106;DHT22;1059;52.548;13.408;2023-02-03T03:55:18;2.90;99.90
2106;DHT22;1059;52.548;13.408;2023-02-03T03:57:52;2.90;99.90
2106;DHT22;1059;52.548;13.408;2023-02-03T04:00:22;2.90;99.90
2106;DHT22;1059;52.548;13.408;2023-02-03T04:02:54;3.00;99.90
2106;DHT22;1059;52.548;13.408;2023-02-03T04:05:22;3.00;99.90
2106;DHT22;1059;52.548;13.408;2023-02-03T04:07:49;3.10;99.90
2106;DHT22;1059;52.548;13.408;2023-02-03T04:10:22;3.10;99.90
2106;DHT22;1059;52.548;13.408;2023-02-03T04:12:51;3.10;99.90
2106;DHT22;1059;52.548;13.408;2023-02-03T04:15:17;3.20;99.90
2106;DHT22;1059;52.548;13.408;2023-02-03T04:17:44;3.20;99.90
2106;DHT22;1059;52.548;13.408;2023-02-03T04:20:13;3.30;99.90
2106;DHT22;1059;52.548;13.408;2023-02-03T04:22:40;3.40;99.90
2106;DHT22;1059;52.548;13.408;2023-02-03T04:25:08;3.40;99.90
2106;DHT22;1059;52.548;13.408;2023-02-03T04:27:35;3.50;99.90
2106;DHT22;1059;52.548;13.408;2023-02-03T04:30:02;3.50;99.90
2106;DHT22;1059;52.548;13.408;2023-02-03T04:32:29;3.60;99.90
2106;DHT22;1059;52.548;13.408;2023-02-03T04:34:56;3.60;99.90
2106;DHT22;1059;52.548;13.408;2023-02-03T04:37:24;3.60;99.90
2106;DHT22;1059;52.548;13.408;2023-02-03T04:39:52;3.70;99.90
2106;DHT22;1059;52.548;13.408;2023-02-03T04:42:20;3.70;99.90
2106;DHT22;1059;52.548;13.408;2023-02-03T04:44:47;3.80;99.90
2106;DHT22;1059;52.548;13.408;2023-02-03T04:47:14;3.90;99.90
2106;DHT22;1059;52.548;13.408;2023-02-03T04:49:41;3.90;99.90
2106;DHT22;1059;52.548;13.408;2023-02-03T04:52:08;3.90;99.90
2106;DHT22;1059;52.548;13.408;2023-02-03T04:54:36;4.00;99.90
2106;DHT22;1059;52.548;13.408;2023-02-03T04:57:04;4.10;99.90
2106;DHT22;1059;52.548;13.408;2023-02-03T04:59:31;4.10;99.90
2106;DHT22;1059;52.548;13.408;2023-02-03T05:02:00;4.20;99.90
2106;DHT22;1059;52.548;13.408;2023-02-03T05:04:27;4.30;99.90
2106;DHT22;1059;52.548;13.408;2023-02-03T05:06:54;4.30;99.90
2106;DHT22;1059;52.548;13.408;2023-02-03T05:09:22;4.40;99.90
2106;DHT22;1059;52.548;13.408;2023-02-03T05:11:50;4.50;99.90
2106;DHT22;1059;52.548;13.408;2023-02-03T05:14:17;4.60;99.90
2106;DHT22;1059;52.548;13.408;2023-02-03T05:16:44;4.70;99.90
2106;DHT22;1059;52.548;13.408;2023-02-03T05:19:11;4.90;99.90
2106;DHT22;1059;52.548;13.408;2023-02-03T05:21:38;5.00;99.90
2106;DHT22;1059;52.548;13.408;2023-02-03T05:24:05;5.10;99.90
2106;DHT22;1059;52.548;13.408;2023-02-03T05:26:32;5.20;99.90
2106;DHT22;1059;52.548;13.408;2023-02-03T05:29:01;5.30;99.90
2106;DHT22;1059;52.548;13.408;2023-02-03T05:31:28;5.40;99.90
2106;DHT22;1059;52.548;13.408;2023-02-03T05:33:54;5.50;99.90
2106;DHT22;1059;52.548;13.408;2023-02-03T05:36:21;5.50;99.90
2106;DHT22;1059;52.548;13.408;2023-02-03T05:38:48;5.70;99.90
2106;DHT22;1059;52.548;13.408;2023-02-03T05:41:15;5.70;99.90
2106;DHT22;1059;52.548;13.408;2023-02-03T05:44:06;5.80;99.90
2106;DHT22;1059;52.548;13.408;2023-02-03T05:46:33;5.90;99.90
2106;DHT22;1059;52.548;13.408;2023-02-03T05:49:00;5.90;99.90
2106;DHT22;1059;52.548;13.408;2023-02-03T05:51:27;6.00;99.90
2106;DHT22;1059;52.548;13.408;2023-02-03T05:53:53;6.00;99.90
2106;DHT22;1059;52.548;13.408;2023-02-03T05:56:20;6.10;99.90
2106;DHT22;1059;52.548;13.408;2023-02-03T05:58:47;6.20;99.90
2106;DHT22;1059;52.548;13.408;2023-02-03T06:01:17;6.30;99.90
2106;DHT22;1059;52.548;13.408;2023-02-03T06:03:45;6.30;99.90
2106;DHT22;1059;52.548;13.408;2023-02-03T06:06:11;6.40;99.90
2106;DHT22;1059;52.548;13.408;2023-02-03T06:08:38;6.40;99.90
2106;DHT22;1059;52.548;13.408;2023-02-03T06:11:05;6.50;99.90
2106;DHT22;1059;52.548;13.408;2023-02-03T06:13:32;6.60;99.90
2106;DHT22;1059;52.548;13.408;2023-02-03T06:15:59;6.60;99.90
2106;DHT22;1059;52.548;13.408;2023-02-03T06:18:27;6.60;99.90
2106;DHT22;1059;52.548;13.408;2023-02-03T06:20:54;6.60;99.90
2106;DHT22;1059;52.548;13.408;2023-02-03T06:23:21;6.70;99.90
2106;DHT22;1059;52.548;13.408;2023-02-03T06:25:49;6.80;99.90
2106;DHT22;1059;52.548;13.408;2023-02-03T06:28:16;6.80;99.90
2106;DHT22;1059;52.548;13.408;2023-02-03T06:30:43;6.80;99.90
2106;DHT22;1059;52.548;13.408;2023-02-03T06:33:10;6.80;99.90
2106;DHT22;1059;52.548;13.408;2023-02-03T06:35:38;6.80;99.90
2106;DHT22;1059;52.548;13.408;2023-02-03T06:38:05;6.90;99.90
2106;DHT22;1059;52.548;13.408;2023-02-03T06:40:32;6.90;99.90
2106;DHT22;1059;52.548;13.408;2023-02-03T06:42:59;6.90;99.90
2106;DHT22;1059;52.548;13.408;2023-02-03T06:45:25;6.90;99.90
2106;DHT22;1059;52.548;13.408;2023-02-03T06:47:52;7.00;99.90
2106;DHT22;1059;52.548;13.408;2023-02-03T06:50:19;7.00;99.90
2106;DHT22;1059;52.548;13.408;2023-02-03T06:52:48;7.00;99.90
2106;DHT22;1059;52.548;13.408;2023-02-03T06:55:15;7.00;99.90
2106;DHT22;1059;52.548;13.408;2023-02-03T06:57:43;7.00;99.90
2106;DHT22;1059;52.548;13.408;2023-02-03T07:00:11;7.10;99.90
2106;DHT22;1059;52.548;13.408;2023-02-03T07:02:39;7.10;99.90
2106;DHT22;1059;52.548;13.408;2023-02-03T07:05:06;7.10;99.90
2106;DHT22;1059;52.548;13.408;2023-02-03T07:07:33;7.10;99.90
2106;DHT22;1059;52.548;13.408;2023-02-03T07:10:01;7.10;99.90
2106;DHT22;1059;52.548;13.408;2023-02-03T07:12:28;7.20;99.90
2106;DHT22;1059;52.548;13.408;2023-02-03T07:14:56;7.20;99.90
2106;DHT22;1059;52.548;13.408;2023-02-03T07:17:23;7.20;99.90
2106;DHT22;1059;52.548;13.408;2023-02-03T07:19:50;7.20;99.90
2106;DHT22;1059;52.548;13.408;2023-02-03T07:22:17;7.30;99.90
2106;DHT22;1059;52.548;13.408;2023-02-03T07:24:44;7.30;99.90
2106;DHT22;1059;52.548;13.408;2023-02-03T07:27:12;7.20;99.90
2106;DHT22;1059;52.548;13.408;2023-02-03T07:29:39;7.20;99.90
2106;DHT22;1059;52.548;13.408;2023-02-03T07:32:05;7.20;99.90
2106;DHT22;1059;52.548;13.408;2023-02-03T07:34:32;7.30;99.90
2106;DHT22;1059;52.548;13.408;2023-02-03T07:36:59;7.30;99.90
2106;DHT22;1059;52.548;13.408;2023-02-03T07:39:26;7.30;99.90
2106;DHT22;1059;52.548;13.408;2023-02-03T07:41:53;7.30;99.90
2106;DHT22;1059;52.548;13.408;2023-02-03T07:44:21;7.30;99.90
2106;DHT22;1059;52.548;13.408;2023-02-03T07:46:48;7.30;99.90
2106;DHT22;1059;52.548;13.408;2023-02-03T07:49:15;7.30;99.90
2106;DHT22;1059;52.548;13.408;2023-02-03T07:51:42;7.30;99.90
2106;DHT22;1059;52.548;13.408;2023-02-03T07:54:09;7.40;99.90
2106;DHT22;1059;52.548;13.408;2023-02-03T07:56:35;7.40;99.90
2106;DHT22;1059;52.548;13.408;2023-02-03T07:59:02;7.40;99.90
2106;DHT22;1059;52.548;13.408;2023-02-03T08:01:30;7.40;99.90
2106;DHT22;1059;52.548;13.408;2023-02-03T08:03:58;7.40;99.90
2106;DHT22;1059;52.548;13.408;2023-02-03T08:06:26;7.40;99.90
2106;DHT22;1059;52.548;13.408;2023-02-03T08:08:55;7.40;99.90
2106;DHT22;1059;52.548;13.408;2023-02-03T08:11:22;7.40;99.90
2106;DHT22;1059;52.548;13.408;2023-02-03T08:13:48;7.40;99.90
2106;DHT22;1059;52.548;13.408;2023-02-03T08:16:15;7.40;99.90
2106;DHT22;1059;52.548;13.408;2023-02-03T08:18:43;7.40;99.90
2106;DHT22;1059;52.548;13.408;2023-02-03T08:21:10;7.40;99.90
2106;DHT22;1059;52.548;13.408;2023-02-03T08:23:37;7.40;99.90
2106;DHT22;1059;52.548;13.408;2023-02-03T08:26:04;7.40;99.90
2106;DHT22;1059;52.548;13.408;2023-02-03T08:28:31;7.40;99.90
2106;DHT22;1059;52.548;13.408;2023-02-03T08:30:58;7.40;99.90
2106;DHT22;1059;52.548;13.408;2023-02-03T08:33:25;7.40;99.90
2106;DHT22;1059;52.548;13.408;2023-02-03T08:35:54;7.40;99.90
2106;DHT22;1059;52.548;13.408;2023-02-03T08:38:21;7.40;99.90
2106;DHT22;1059;52.548;13.408;2023-02-03T08:40:48;7.40;99.90
2106;DHT22;1059;52.548;13.408;2023-02-03T08:43:15;7.40;99.90
2106;DHT22;1059;52.548;13.408;2023-02-03T08:45:42;7.40;99.90
2106;DHT22;1059;52.548;13.408;2023-02-03T08:48:09;7.40;99.90
2106;DHT22;1059;52.548;13.408;2023-02-03T08:50:36;7.40;99.90
2106;DHT22;1059;52.548;13.408;2023-02-03T08:53:04;7.40;99.90
2106;DHT22;1059;52.548;13.408;2023-02-03T08:55:31;7.40;99.90
2106;DHT22;1059;52.548;13.408;2023-02-03T08:57:58;7.40;99.90
2106;DHT22;1059;52.548;13.408;2023-02-03T09:00:25;7.40;99.90
2106;DHT22;1059;52.548;13.408;2023-02-03T09:02:52;7.40;99.90
2106;DHT22;1059;52.548;13.408;2023-02-03T09:05:19;7.50;99.90
2106;DHT22;1059;52.548;13.408;2023-02-03T09:07:46;7.40;99.90
2106;DHT22;1059;52.548;13.408;2023-02-03T09:10:14;7.50;99.90
2106;DHT22;1059;52.548;13.408;2023-02-03T09:12:41;7.50;99.90
2106;DHT22;1059;52.548;13.408;2023-02-03T09:15:09;7.50;99.90
2106;DHT22;1059;52.548;13.408;2023-02-03T09:17:35;7.50;99.90
2106;DHT22;1059;52.548;13.408;2023-02-03T09:20:03;7.50;99.90
2106;DHT22;1059;52.548;13.408;2023-02-03T09:22:30;7.50;99.90
2106;DHT22;1059;52.548;13.408;2023-02-03T09:24:56;7.50;99.90
2106;DHT22;1059;52.548;13.408;2023-02-03T09:27:25;7.60;99.90
2106;DHT22;1059;52.548;13.408;2023-02-03T09:29:51;7.60;99.90
2106;DHT22;1059;52.548;13.408;2023-02-03T09:32:18;7.60;99.90
2106;DHT22;1059;52.548;13.408;2023-02-03T09:34:45;7.60;99.90
2106;DHT22;1059;52.548;13.408;2023-02-03T09:37:12;7.60;99.90
2106;DHT22;1059;52.548;13.408;2023-02-03T09:39:39;7.70;99.90
2106;DHT22;1059;52.548;13.408;2023-02-03T09:42:16;7.70;99.90
2106;DHT22;1059;52.548;13.408;2023-02-03T09:44:51;7.70;99.90
2106;DHT22;1059;52.548;13.408;2023-02-03T09:47:24;7.70;99.90
2106;DHT22;1059;52.548;13.408;2023-02-03T09:49:55;7.70;99.90
2106;DHT22;1059;52.548;13.408;2023-02-03T09:52:25;7.70;99.90
2106;DHT22;1059;52.548;13.408;2023-02-03T09:54:58;7.70;99.90
2106;DHT22;1059;52.548;13.408;2023-02-03T09:57:29;7.70;99.90
2106;DHT22;1059;52.548;13.408;2023-02-03T10:00:02;7.70;99.90
2106;DHT22;1059;52.548;13.408;2023-02-03T10:02:41;7.80;99.90
2106;DHT22;1059;52.548;13.408;2023-02-03T10:05:14;7.80;99.90
2106;DHT22;1059;52.548;13.408;2023-02-03T10:07:50;7.80;99.90
2106;DHT22;1059;52.548;13.408;2023-02-03T10:10:28;7.80;99.90
2106;DHT22;1059;52.548;13.408;2023-02-03T10:16:03;7.90;99.90
2106;DHT22;1059;52.548;13.408;2023-02-03T10:18:35;7.90;99.90
2106;DHT22;1059;52.548;13.408;2023-02-03T10:21:11;7.90;99.90
2106;DHT22;1059;52.548;13.408;2023-02-03T10:23:42;7.90;99.90
2106;DHT22;1059;52.548;13.408;2023-02-03T10:26:14;8.00;99.90
2106;DHT22;1059;52.548;13.408;2023-02-03T10:28:50;8.00;99.90
2106;DHT22;1059;52.548;13.408;2023-02-03T10:31:21;8.10;99.90
2106;DHT22;1059;52.548;13.408;2023-02-03T10:33:55;8.10;99.90
2106;DHT22;1059;52.548;13.408;2023-02-03T10:36:32;8.10;99.90
2106;DHT22;1059;52.548;13.408;2023-02-03T10:39:09;8.10;99.90
2106;DHT22;1059;52.548;13.408;2023-02-03T10:41:38;8.20;99.90
2106;DHT22;1059;52.548;13.408;2023-02-03T10:44:09;8.20;99.90
2106;DHT22;1059;52.548;13.408;2023-02-03T10:46:40;8.10;99.90
2106;DHT22;1059;52.548;13.408;2023-02-03T10:49:09;7.70;99.90
2106;DHT22;1059;52.548;13.408;2023-02-03T10:51:39;7.50;99.90
2106;DHT22;1059;52.548;13.408;2023-02-03T10:54:26;7.40;99.90
2106;DHT22;1059;52.548;13.408;2023-02-03T10:56:54;7.30;99.90
2106;DHT22;1059;52.548;13.408;2023-02-03T10:59:28;7.30;99.90
2106;DHT22;1059;52.548;13.408;2023-02-03T11:01:57;7.30;99.90
2106;DHT22;1059;52.548;13.408;2023-02-03T11:04:25;7.30;99.90
2106;DHT22;1059;52.548;13.408;2023-02-03T11:06:54;7.40;99.90
2106;DHT22;1059;52.548;13.408;2023-02-03T11:09:28;7.40;99.90
2106;DHT22;1059;52.548;13.408;2023-02-03T11:12:09;7.40;99.90
2106;DHT22;1059;52.548;13.408;2023-02-03T11:14:38;7.50;99.90
2106;DHT22;1059;52.548;13.408;2023-02-03T11:17:12;7.50;99.90
2106;DHT22;1059;52.548;13.408;2023-02-03T11:19:42;7.50;99.90
2106;DHT22;1059;52.548;13.408;2023-02-03T11:22:10;7.50;99.90
2106;DHT22;1059;52.548;13.408;2023-02-03T11:24:39;7.60;99.90
2106;DHT22;1059;52.548;13.408;2023-02-03T11:27:10;7.70;99.90
2106;DHT22;1059;52.548;13.408;2023-02-03T11:29:40;7.70;99.90
2106;DHT22;1059;52.548;13.408;2023-02-03T11:32:17;7.80;99.90
2106;DHT22;1059;52.548;13.408;2023-02-03T11:34:57;7.80;99.90
2106;DHT22;1059;52.548;13.408;2023-02-03T11:37:27;7.80;99.90
2106;DHT22;1059;52.548;13.408;2023-02-03T11:40:21;7.80;99.90
2106;DHT22;1059;52.548;13.408;2023-02-03T11:42:59;7.80;99.90
2106;DHT22;1059;52.548;13.408;2023-02-03T11:45:28;7.80;99.90
2106;DHT22;1059;52.548;13.408;2023-02-03T11:47:58;7.90;99.90
2106;DHT22;1059;52.548;13.408;2023-02-03T11:50:29;7.90;99.90
2106;DHT22;1059;52.548;13.408;2023-02-03T11:53:11;8.00;99.90
2106;DHT22;1059;52.548;13.408;2023-02-03T11:55:47;8.10;99.90
2106;DHT22;1059;52.548;13.408;2023-02-03T12:01:48;8.30;99.90
2106;DHT22;1059;52.548;13.408;2023-02-03T12:04:33;8.40;99.90
2106;DHT22;1059;52.548;13.408;2023-02-03T12:10:15;8.60;99.90
2106;DHT22;1059;52.548;13.408;2023-02-03T12:12:50;8.70;99.90
2106;DHT22;1059;52.548;13.408;2023-02-03T12:15:39;8.90;99.90
2106;DHT22;1059;52.548;13.408;2023-02-03T12:18:30;9.00;99.90
2106;DHT22;1059;52.548;13.408;2023-02-03T12:21:08;9.20;99.90
2106;DHT22;1059;52.548;13.408;2023-02-03T12:23:47;9.20;99.90
2106;DHT22;1059;52.548;13.408;2023-02-03T12:26:20;9.20;99.90
2106;DHT22;1059;52.548;13.408;2023-02-03T12:28:55;9.20;99.90
2106;DHT22;1059;52.548;13.408;2023-02-03T12:31:29;9.20;99.90
2106;DHT22;1059;52.548;13.408;2023-02-03T12:34:08;9.20;99.90
2106;DHT22;1059;52.548;13.408;2023-02-03T12:36:40;9.40;99.90
2106;DHT22;1059;52.548;13.408;2023-02-03T12:39:16;9.50;99.90
2106;DHT22;1059;52.548;13.408;2023-02-03T12:41:48;9.50;99.90
2106;DHT22;1059;52.548;13.408;2023-02-03T12:44:19;9.50;99.90
2106;DHT22;1059;52.548;13.408;2023-02-03T12:46:51;9.50;99.90
2106;DHT22;1059;52.548;13.408;2023-02-03T12:49:29;9.70;99.90
2106;DHT22;1059;52.548;13.408;2023-02-03T12:52:02;9.50;99.90
2106;DHT22;1059;52.548;13.408;2023-02-03T12:54:38;9.20;99.90
2106;DHT22;1059;52.548;13.408;2023-02-03T12:57:18;8.90;99.90
2106;DHT22;1059;52.548;13.408;2023-02-03T12:59:58;8.10;99.90
2106;DHT22;1059;52.548;13.408;2023-02-03T13:02:31;7.00;99.90
2106;DHT22;1059;52.548;13.408;2023-02-03T13:05:06;6.20;99.90
2106;DHT22;1059;52.548;13.408;2023-02-03T13:07:46;5.70;99.90
2106;DHT22;1059;52.548;13.408;2023-02-03T13:10:18;5.50;99.90
2106;DHT22;1059;52.548;13.408;2023-02-03T13:12:50;5.40;99.90
2106;DHT22;1059;52.548;13.408;2023-02-03T13:15:24;5.40;99.90
2106;DHT22;1059;52.548;13.408;2023-02-03T13:17:55;5.50;99.90
2106;DHT22;1059;52.548;13.408;2023-02-03T13:20:25;5.50;99.90
2106;DHT22;1059;52.548;13.408;2023-02-03T13:22:54;5.60;99.90
2106;DHT22;1059;52.548;13.408;2023-02-03T13:25:24;5.70;99.90
2106;DHT22;1059;52.548;13.408;2023-02-03T13:28:01;5.70;99.90
2106;DHT22;1059;52.548;13.408;2023-02-03T13:31:06;5.80;99.90
2106;DHT22;1059;52.548;13.408;2023-02-03T13:34:02;5.80;99.90
2106;DHT22;1059;52.548;13.408;2023-02-03T13:36:50;5.70;99.90
2106;DHT22;1059;52.548;13.408;2023-02-03T13:39:32;5.80;99.90
2106;DHT22;1059;52.548;13.408;2023-02-03T13:42:19;5.90;99.90
2106;DHT22;1059;52.548;13.408;2023-02-03T13:44:49;6.30;99.90
2106;DHT22;1059;52.548;13.408;2023-02-03T13:47:21;7.10;99.90
2106;DHT22;1059;52.548;13.408;2023-02-03T13:49:53;8.00;99.90
2106;DHT22;1059;52.548;13.408;2023-02-03T13:52:25;8.50;99.90
2106;DHT22;1059;52.548;13.408;2023-02-03T13:54:55;8.80;99.90
2106;DHT22;1059;52.548;13.408;2023-02-03T13:57:28;8.80;99.90
2106;DHT22;1059;52.548;13.408;2023-02-03T13:59:59;9.10;99.90
2106;DHT22;1059;52.548;13.408;2023-02-03T14:02:49;9.10;99.90
2106;DHT22;1059;52.548;13.408;2023-02-03T14:05:45;9.30;99.90
2106;DHT22;1059;52.548;13.408;2023-02-03T14:11:40;9.60;99.90
2106;DHT22;1059;52.548;13.408;2023-02-03T14:21:08;10.20;99.90
2106;DHT22;1059;52.548;13.408;2023-02-03T14:23:56;10.20;99.90
2106;DHT22;1059;52.548;13.408;2023-02-03T14:26:31;10.20;99.90
2106;DHT22;1059;52.548;13.408;2023-02-03T14:29:01;10.30;99.90
2106;DHT22;1059;52.548;13.408;2023-02-03T14:31:28;10.30;99.90
2106;DHT22;1059;52.548;13.408;2023-02-03T14:34:07;10.30;99.90
2106;DHT22;1059;52.548;13.408;2023-02-03T14:37:07;9.80;99.90
2106;DHT22;1059;52.548;13.408;2023-02-03T14:42:56;9.20;99.90
2106;DHT22;1059;52.548;13.408;2023-02-03T14:48:46;8.60;99.90
2106;DHT22;1059;52.548;13.408;2023-02-03T14:51:26;8.40;99.90
2106;DHT22;1059;52.548;13.408;2023-02-03T14:54:12;8.30;99.90
2106;DHT22;1059;52.548;13.408;2023-02-03T14:56:45;8.20;99.90
2106;DHT22;1059;52.548;13.408;2023-02-03T14:59:39;8.10;99.90
2106;DHT22;1059;52.548;13.408;2023-02-03T15:02:12;8.00;99.90
2106;DHT22;1059;52.548;13.408;2023-02-03T15:04:40;8.00;99.90
2106;DHT22;1059;52.548;13.408;2023-02-03T15:07:07;8.00;99.90
2106;DHT22;1059;52.548;13.408;2023-02-03T15:09:38;8.00;99.90
2106;DHT22;1059;52.548;13.408;2023-02-03T15:12:15;7.90;99.90
2106;DHT22;1059;52.548;13.408;2023-02-03T15:14:42;7.90;99.90
2106;DHT22;1059;52.548;13.408;2023-02-03T15:17:18;7.90;99.90
2106;DHT22;1059;52.548;13.408;2023-02-03T15:19:46;7.80;99.90
2106;DHT22;1059;52.548;13.408;2023-02-03T15:22:21;7.80;99.90
2106;DHT22;1059;52.548;13.408;2023-02-03T15:24:50;7.80;99.90
2106;DHT22;1059;52.548;13.408;2023-02-03T15:27:22;7.70;99.90
2106;DHT22;1059;52.548;13.408;2023-02-03T15:29:49;7.80;99.90
2106;DHT22;1059;52.548;13.408;2023-02-03T15:32:19;7.80;99.90
2106;DHT22;1059;52.548;13.408;2023-02-03T15:34:50;7.80;99.90
2106;DHT22;1059;52.548;13.408;2023-02-03T15:37:25;7.70;99.90
2106;DHT22;1059;52.548;13.408;2023-02-03T15:39:59;7.70;99.90
2106;DHT22;1059;52.548;13.408;2023-02-03T15:42:30;7.70;99.90
2106;DHT22;1059;52.548;13.408;2023-02-03T15:45:03;7.70;99.90
2106;DHT22;1059;52.548;13.408;2023-02-03T15:47:35;7.60;99.90
2106;DHT22;1059;52.548;13.408;2023-02-03T15:50:13;7.60;99.90
2106;DHT22;1059;52.548;13.408;2023-02-03T15:52:42;7.50;99.90
2106;DHT22;1059;52.548;13.408;2023-02-03T15:55:18;7.50;99.90
2106;DHT22;1059;52.548;13.408;2023-02-03T15:57:48;7.50;99.90
2106;DHT22;1059;52.548;13.408;2023-02-03T16:00:28;7.40;99.90
2106;DHT22;1059;52.548;13.408;2023-02-03T16:02:58;7.40;99.90
2106;DHT22;1059;52.548;13.408;2023-02-03T16:05:28;7.40;99.90
2106;DHT22;1059;52.548;13.408;2023-02-03T16:07:56;7.30;99.90
2106;DHT22;1059;52.548;13.408;2023-02-03T16:10:28;7.30;99.90
2106;DHT22;1059;52.548;13.408;2023-02-03T16:13:17;7.30;99.90
2106;DHT22;1059;52.548;13.408;2023-02-03T16:15:57;7.30;99.90
2106;DHT22;1059;52.548;13.408;2023-02-03T16:18:26;7.30;99.90
2106;DHT22;1059;52.548;13.408;2023-02-03T16:20:53;7.30;99.90
2106;DHT22;1059;52.548;13.408;2023-02-03T16:23:21;7.40;99.90
2106;DHT22;1059;52.548;13.408;2023-02-03T16:26:15;7.40;99.90
2106;DHT22;1059;52.548;13.408;2023-02-03T16:28:54;7.30;99.90
2106;DHT22;1059;52.548;13.408;2023-02-03T16:31:43;7.30;99.90
2106;DHT22;1059;52.548;13.408;2023-02-03T16:34:30;7.30;99.90
2106;DHT22;1059;52.548;13.408;2023-02-03T16:37:22;7.20;99.90
2106;DHT22;1059;52.548;13.408;2023-02-03T16:40:08;7.20;99.90
2106;DHT22;1059;52.548;13.408;2023-02-03T16:42:52;7.20;99.90
2106;DHT22;1059;52.548;13.408;2023-02-03T16:45:36;7.20;99.90
2106;DHT22;1059;52.548;13.408;2023-02-03T16:48:20;7.20;99.90
2106;DHT22;1059;52.548;13.408;2023-02-03T16:51:11;7.10;99.90
2106;DHT22;1059;52.548;13.408;2023-02-03T16:53:41;7.10;99.90
2106;DHT22;1059;52.548;13.408;2023-02-03T16:56:09;7.10;99.90
2106;DHT22;1059;52.548;13.408;2023-02-03T16:58:36;7.10;99.90
2106;DHT22;1059;52.548;13.408;2023-02-03T17:01:04;7.10;99.90
2106;DHT22;1059;52.548;13.408;2023-02-03T17:03:33;7.10;99.90